sensor_id;sensor_type;location;lat;lon;timestamp;P1;durP1;ratioP1;P2;durP2;ratioP2
6671;SDS011;3372;48.690;12.362;2024-03-08T00:00:43;19.95;;;11.63;;
6671;SDS011;3372;48.690;12.362;2024-03-08T00:03:09;18.63;;;11.85;;
6671;SDS011;3372;48.690;12.362;2024-03-08T00:05:35;19.17;;;11.88;;
6671;SDS011;3372;48.690;12.362;2024-03-08T00:08:02;18.80;;;11.32;;
6671;SDS011;3372;48.690;12.362;2024-03-08T00:10:28;19.17;;;11.75;;
6671;SDS011;3372;48.690;12.362;2024-03-08T00:12:54;19.30;;;11.50;;
6671;SDS011;3372;48.690;12.362;2024-03-08T00:15:22;21.70;;;12.65;;
6671;SDS011;3372;48.690;12.362;2024-03-08T00:17:48;20.88;;;12.23;;
6671;SDS011;3372;48.690;12.362;2024-03-08T00:20:15;20.17;;;12.02;;
6671;SDS011;3372;48.690;12.362;2024-03-08T00:22:42;20.13;;;12.80;;
6671;SDS011;3372;48.690;12.362;2024-03-08T00:25:09;21.25;;;11.68;;
6671;SDS011;3372;48.690;12.362;2024-03-08T00:27:35;21.50;;;12.40;;
6671;SDS011;3372;48.690;12.362;2024-03-08T00:30:01;19.38;;;11.98;;
6671;SDS011;3372;48.690;12.362;2024-03-08T00:32:27;21.02;;;11.93;;
6671;SDS011;3372;48.690;12.362;2024-03-08T00:34:53;20.77;;;12.18;;
6671;SDS011;3372;48.690;12.362;2024-03-08T00:37:23;20.52;;;12.63;;
6671;SDS011;3372;48.690;12.362;2024-03-08T00:39:52;24.05;;;12.98;;
6671;SDS011;3372;48.690;12.362;2024-03-08T00:42:19;22.80;;;12.88;;
6671;SDS011;3372;48.690;12.362;2024-03-08T00:44:45;21.00;;;12.63;;
6671;SDS011;3372;48.690;12.362;2024-03-08T00:47:11;21.70;;;12.30;;
6671;SDS011;3372;48.690;12.362;2024-03-08T00:49:37;22.90;;;12.68;;
6671;SDS011;3372;48.690;12.362;2024-03-08T00:52:04;20.75;;;12.90;;
6671;SDS011;3372;48.690;12.362;2024-03-08T00:54:33;19.40;;;12.20;;
6671;SDS011;3372;48.690;12.362;2024-03-08T00:57:00;20.00;;;13.23;;
6671;SDS011;3372;48.690;12.362;2024-03-08T00:59:28;23.95;;;13.90;;
6671;SDS011;3372;48.690;12.362;2024-03-08T01:01:54;18.88;;;12.18;;
6671;SDS011;3372;48.690;12.362;2024-03-08T01:04:20;22.67;;;13.23;;
6671;SDS011;3372;48.690;12.362;2024-03-08T01:06:48;20.30;;;13.18;;
6671;SDS011;3372;48.690;12.362;2024-03-08T01:09:14;20.60;;;12.45;;
6671;SDS011;3372;48.690;12.362;2024-03-08T01:11:42;19.65;;;12.32;;
6671;SDS011;3372;48.690;12.362;2024-03-08T01:14:08;23.05;;;13.45;;
6671;SDS011;3372;48.690;12.362;2024-03-08T01:16:34;22.00;;;12.95;;
6671;SDS011;3372;48.690;12.362;2024-03-08T01:19:00;20.30;;;12.85;;
6671;SDS011;3372;48.690;12.362;2024-03-08T01:21:29;19.25;;;12.88;;
6671;SDS011;3372;48.690;12.362;2024-03-08T01:23:55;21.83;;;12.63;;
6671;SDS011;3372;48.690;12.362;2024-03-08T01:26:22;20.92;;;13.50;;
6671;SDS011;3372;48.690;12.362;2024-03-08T01:28:48;20.63;;;12.27;;
6671;SDS011;3372;48.690;12.362;2024-03-08T01:31:15;21.02;;;12.23;;
6671;SDS011;3372;48.690;12.362;2024-03-08T01:33:41;20.83;;;13.20;;
6671;SDS011;3372;48.690;12.362;2024-03-08T01:36:07;20.33;;;12.77;;
6671;SDS011;3372;48.690;12.362;2024-03-08T01:38:33;19.30;;;12.75;;
6671;SDS011;3372;48.690;12.362;2024-03-08T01:40:59;21.38;;;13.02;;
6671;SDS011;3372;48.690;12.362;2024-03-08T01:43:26;20.73;;;13.20;;
6671;SDS011;3372;48.690;12.362;2024-03-08T01:45:57;18.58;;;12.85;;
6671;SDS011;3372;48.690;12.362;2024-03-08T01:48:26;20.17;;;12.05;;
6671;SDS011;3372;48.690;12.362;2024-03-08T01:50:53;21.52;;;12.50;;
6671;SDS011;3372;48.690;12.362;2024-03-08T01:53:19;18.37;;;12.30;;
6671;SDS011;3372;48.690;12.362;2024-03-08T01:55:46;19.10;;;12.27;;
6671;SDS011;3372;48.690;12.362;2024-03-08T01:58:13;18.75;;;12.38;;
6671;SDS011;3372;48.690;12.362;2024-03-08T02:00:46;18.25;;;12.30;;
6671;SDS011;3372;48.690;12.362;2024-03-08T02:03:14;19.80;;;12.60;;
6671;SDS011;3372;48.690;12.362;2024-03-08T02:05:40;18.60;;;12.23;;
6671;SDS011;3372;48.690;12.362;2024-03-08T02:08:06;21.38;;;12.15;;
6671;SDS011;3372;48.690;12.362;2024-03-08T02:10:37;19.75;;;12.82;;
6671;SDS011;3372;48.690;12.362;2024-03-08T02:13:03;18.00;;;11.93;;
6671;SDS011;3372;48.690;12.362;2024-03-08T02:18:14;20.02;;;12.10;;
6671;SDS011;3372;48.690;12.362;2024-03-08T02:20:42;19.60;;;12.07;;
6671;SDS011;3372;48.690;12.362;2024-03-08T02:23:08;22.58;;;13.50;;
6671;SDS011;3372;48.690;12.362;2024-03-08T02:25:34;17.95;;;11.75;;
6671;SDS011;3372;48.690;12.362;2024-03-08T02:28:00;21.08;;;13.30;;
6671;SDS011;3372;48.690;12.362;2024-03-08T02:30:26;22.30;;;12.48;;
6671;SDS011;3372;48.690;12.362;2024-03-08T02:32:54;21.13;;;11.88;;
6671;SDS011;3372;48.690;12.362;2024-03-08T02:35:21;22.58;;;12.27;;
6671;SDS011;3372;48.690;12.362;2024-03-08T02:37:47;19.73;;;11.80;;
6671;SDS011;3372;48.690;12.362;2024-03-08T02:40:13;17.98;;;12.00;;
6671;SDS011;3372;48.690;12.362;2024-03-08T02:42:39;20.20;;;11.88;;
6671;SDS011;3372;48.690;12.362;2024-03-08T02:45:05;20.90;;;12.23;;
6671;SDS011;3372;48.690;12.362;2024-03-08T02:47:32;19.73;;;11.02;;
6671;SDS011;3372;48.690;12.362;2024-03-08T02:49:58;21.95;;;12.25;;
6671;SDS011;3372;48.690;12.362;2024-03-08T02:52:24;20.63;;;12.50;;
6671;SDS011;3372;48.690;12.362;2024-03-08T02:54:50;21.75;;;13.05;;
6671;SDS011;3372;48.690;12.362;2024-03-08T02:57:16;22.98;;;13.63;;
6671;SDS011;3372;48.690;12.362;2024-03-08T02:59:43;23.40;;;12.85;;
6671;SDS011;3372;48.690;12.362;2024-03-08T03:02:10;23.00;;;13.77;;
6671;SDS011;3372;48.690;12.362;2024-03-08T03:04:37;23.40;;;13.68;;
6671;SDS011;3372;48.690;12.362;2024-03-08T03:07:04;22.67;;;12.77;;
6671;SDS011;3372;48.690;12.362;2024-03-08T03:09:30;23.58;;;13.85;;
6671;SDS011;3372;48.690;12.362;2024-03-08T03:11:58;25.52;;;12.93;;
6671;SDS011;3372;48.690;12.362;2024-03-08T03:14:24;22.23;;;13.75;;
6671;SDS011;3372;48.690;12.362;2024-03-08T03:16:52;21.25;;;12.55;;
6671;SDS011;3372;48.690;12.362;2024-03-08T03:19:18;23.92;;;13.23;;
6671;SDS011;3372;48.690;12.362;2024-03-08T03:21:45;27.88;;;13.52;;
6671;SDS011;3372;48.690;12.362;2024-03-08T03:24:11;22.10;;;12.98;;
6671;SDS011;3372;48.690;12.362;2024-03-08T03:26:37;23.77;;;13.77;;
6671;SDS011;3372;48.690;12.362;2024-03-08T03:29:04;25.10;;;14.65;;
6671;SDS011;3372;48.690;12.362;2024-03-08T03:31:31;25.95;;;14.05;;
6671;SDS011;3372;48.690;12.362;2024-03-08T03:33:57;24.80;;;14.98;;
6671;SDS011;3372;48.690;12.362;2024-03-08T03:36:27;26.90;;;15.73;;
6671;SDS011;3372;48.690;12.362;2024-03-08T03:38:53;26.88;;;15.50;;
6671;SDS011;3372;48.690;12.362;2024-03-08T03:41:41;28.40;;;16.40;;
6671;SDS011;3372;48.690;12.362;2024-03-08T03:44:07;26.70;;;15.77;;
6671;SDS011;3372;48.690;12.362;2024-03-08T03:46:33;27.33;;;16.48;;
6671;SDS011;3372;48.690;12.362;2024-03-08T03:49:00;30.42;;;16.60;;
6671;SDS011;3372;48.690;12.362;2024-03-08T03:51:28;27.23;;;16.63;;
6671;SDS011;3372;48.690;12.362;2024-03-08T03:53:55;30.48;;;16.70;;
6671;SDS011;3372;48.690;12.362;2024-03-08T03:56:26;30.15;;;16.75;;
6671;SDS011;3372;48.690;12.362;2024-03-08T03:58:52;27.83;;;15.88;;
6671;SDS011;3372;48.690;12.362;2024-03-08T04:01:18;29.58;;;18.00;;
6671;SDS011;3372;48.690;12.362;2024-03-08T04:03:44;28.90;;;17.45;;
6671;SDS011;3372;48.690;12.362;2024-03-08T04:06:10;28.83;;;17.30;;
6671;SDS011;3372;48.690;12.362;2024-03-08T04:08:36;32.40;;;17.67;;
6671;SDS011;3372;48.690;12.362;2024-03-08T04:11:02;31.05;;;17.05;;
6671;SDS011;3372;48.690;12.362;2024-03-08T04:13:28;32.38;;;16.90;;
6671;SDS011;3372;48.690;12.362;2024-03-08T04:15:54;32.97;;;18.02;;
6671;SDS011;3372;48.690;12.362;2024-03-08T04:18:20;29.38;;;16.98;;
6671;SDS011;3372;48.690;12.362;2024-03-08T04:20:46;31.70;;;17.15;;
6671;SDS011;3372;48.690;12.362;2024-03-08T04:23:12;31.42;;;17.23;;
6671;SDS011;3372;48.690;12.362;2024-03-08T04:25:38;38.25;;;17.58;;
6671;SDS011;3372;48.690;12.362;2024-03-08T04:28:07;28.40;;;17.15;;
6671;SDS011;3372;48.690;12.362;2024-03-08T04:30:35;32.50;;;17.65;;
6671;SDS011;3372;48.690;12.362;2024-03-08T04:33:02;29.67;;;16.70;;
6671;SDS011;3372;48.690;12.362;2024-03-08T04:35:28;29.92;;;16.60;;
6671;SDS011;3372;48.690;12.362;2024-03-08T04:37:55;31.95;;;17.02;;
6671;SDS011;3372;48.690;12.362;2024-03-08T04:40:22;31.30;;;16.98;;
6671;SDS011;3372;48.690;12.362;2024-03-08T04:42:48;36.20;;;17.70;;
6671;SDS011;3372;48.690;12.362;2024-03-08T04:45:15;33.72;;;16.90;;
6671;SDS011;3372;48.690;12.362;2024-03-08T04:47:41;29.77;;;17.38;;
6671;SDS011;3372;48.690;12.362;2024-03-08T04:50:08;31.40;;;16.85;;
6671;SDS011;3372;48.690;12.362;2024-03-08T04:52:34;30.02;;;16.83;;
6671;SDS011;3372;48.690;12.362;2024-03-08T04:55:03;29.88;;;15.95;;
6671;SDS011;3372;48.690;12.362;2024-03-08T04:57:30;30.77;;;17.35;;
6671;SDS011;3372;48.690;12.362;2024-03-08T04:59:57;30.40;;;16.58;;
6671;SDS011;3372;48.690;12.362;2024-03-08T05:02:24;31.70;;;18.05;;
6671;SDS011;3372;48.690;12.362;2024-03-08T05:04:50;36.60;;;17.42;;
6671;SDS011;3372;48.690;12.362;2024-03-08T05:07:16;31.35;;;17.40;;
6671;SDS011;3372;48.690;12.362;2024-03-08T05:09:42;30.60;;;16.48;;
6671;SDS011;3372;48.690;12.362;2024-03-08T05:12:08;29.27;;;16.30;;
6671;SDS011;3372;48.690;12.362;2024-03-08T05:14:34;30.40;;;16.40;;
6671;SDS011;3372;48.690;12.362;2024-03-08T05:17:00;28.73;;;16.35;;
6671;SDS011;3372;48.690;12.362;2024-03-08T05:19:26;30.75;;;16.95;;
6671;SDS011;3372;48.690;12.362;2024-03-08T05:21:55;33.15;;;17.50;;
6671;SDS011;3372;48.690;12.362;2024-03-08T05:24:21;31.95;;;17.10;;
6671;SDS011;3372;48.690;12.362;2024-03-08T05:26:47;31.80;;;17.02;;
6671;SDS011;3372;48.690;12.362;2024-03-08T05:29:12;29.77;;;16.38;;
6671;SDS011;3372;48.690;12.362;2024-03-08T05:34:08;28.73;;;16.48;;
6671;SDS011;3372;48.690;12.362;2024-03-08T05:36:35;34.75;;;18.88;;
6671;SDS011;3372;48.690;12.362;2024-03-08T05:39:01;34.95;;;17.30;;
6671;SDS011;3372;48.690;12.362;2024-03-08T05:41:27;35.40;;;17.95;;
6671;SDS011;3372;48.690;12.362;2024-03-08T05:43:53;33.72;;;18.48;;
6671;SDS011;3372;48.690;12.362;2024-03-08T05:46:19;37.70;;;19.23;;
6671;SDS011;3372;48.690;12.362;2024-03-08T05:48:45;36.28;;;19.13;;
6671;SDS011;3372;48.690;12.362;2024-03-08T05:51:11;38.40;;;19.33;;
6671;SDS011;3372;48.690;12.362;2024-03-08T05:53:37;36.50;;;20.52;;
6671;SDS011;3372;48.690;12.362;2024-03-08T05:56:03;37.97;;;20.13;;
6671;SDS011;3372;48.690;12.362;2024-03-08T05:58:29;36.75;;;20.13;;
6671;SDS011;3372;48.690;12.362;2024-03-08T06:00:56;37.22;;;19.25;;
6671;SDS011;3372;48.690;12.362;2024-03-08T06:03:22;42.05;;;20.98;;
6671;SDS011;3372;48.690;12.362;2024-03-08T06:05:48;40.85;;;21.85;;
6671;SDS011;3372;48.690;12.362;2024-03-08T06:08:15;36.33;;;18.63;;
6671;SDS011;3372;48.690;12.362;2024-03-08T06:10:41;40.55;;;20.30;;
6671;SDS011;3372;48.690;12.362;2024-03-08T06:13:07;38.22;;;19.73;;
6671;SDS011;3372;48.690;12.362;2024-03-08T06:15:33;35.28;;;18.45;;
6671;SDS011;3372;48.690;12.362;2024-03-08T06:17:59;36.60;;;20.65;;
6671;SDS011;3372;48.690;12.362;2024-03-08T06:20:26;37.90;;;20.83;;
6671;SDS011;3372;48.690;12.362;2024-03-08T06:22:52;39.80;;;20.08;;
6671;SDS011;3372;48.690;12.362;2024-03-08T06:25:18;43.05;;;21.00;;
6671;SDS011;3372;48.690;12.362;2024-03-08T06:27:45;37.83;;;18.92;;
6671;SDS011;3372;48.690;12.362;2024-03-08T06:30:12;43.90;;;21.70;;
6671;SDS011;3372;48.690;12.362;2024-03-08T06:32:40;40.33;;;20.90;;
6671;SDS011;3372;48.690;12.362;2024-03-08T06:35:07;37.97;;;20.67;;
6671;SDS011;3372;48.690;12.362;2024-03-08T06:37:35;42.70;;;20.95;;
6671;SDS011;3372;48.690;12.362;2024-03-08T06:40:02;42.30;;;20.42;;
6671;SDS011;3372;48.690;12.362;2024-03-08T06:42:33;41.15;;;21.08;;
6671;SDS011;3372;48.690;12.362;2024-03-08T06:45:00;44.13;;;22.17;;
6671;SDS011;3372;48.690;12.362;2024-03-08T06:47:30;40.55;;;22.35;;
6671;SDS011;3372;48.690;12.362;2024-03-08T06:49:56;40.03;;;19.80;;
6671;SDS011;3372;48.690;12.362;2024-03-08T06:52:22;40.50;;;21.23;;
6671;SDS011;3372;48.690;12.362;2024-03-08T06:54:48;40.30;;;20.38;;
6671;SDS011;3372;48.690;12.362;2024-03-08T06:57:15;38.65;;;21.67;;
6671;SDS011;3372;48.690;12.362;2024-03-08T06:59:41;38.92;;;19.95;;
6671;SDS011;3372;48.690;12.362;2024-03-08T07:02:08;39.67;;;20.70;;
6671;SDS011;3372;48.690;12.362;2024-03-08T07:04:34;40.60;;;20.73;;
6671;SDS011;3372;48.690;12.362;2024-03-08T07:07:03;38.22;;;20.23;;
6671;SDS011;3372;48.690;12.362;2024-03-08T07:09:29;40.08;;;20.30;;
6671;SDS011;3372;48.690;12.362;2024-03-08T07:11:55;42.40;;;20.65;;
6671;SDS011;3372;48.690;12.362;2024-03-08T07:14:24;39.92;;;20.35;;
6671;SDS011;3372;48.690;12.362;2024-03-08T07:16:50;31.50;;;16.85;;
6671;SDS011;3372;48.690;12.362;2024-03-08T07:19:16;37.08;;;19.70;;
6671;SDS011;3372;48.690;12.362;2024-03-08T07:21:45;37.85;;;19.75;;
6671;SDS011;3372;48.690;12.362;2024-03-08T07:24:12;34.63;;;18.35;;
6671;SDS011;3372;48.690;12.362;2024-03-08T07:26:56;37.50;;;18.95;;
6671;SDS011;3372;48.690;12.362;2024-03-08T07:29:23;35.20;;;17.90;;
6671;SDS011;3372;48.690;12.362;2024-03-08T07:31:49;35.63;;;19.60;;
6671;SDS011;3372;48.690;12.362;2024-03-08T07:34:44;36.65;;;19.52;;
6671;SDS011;3372;48.690;12.362;2024-03-08T07:37:10;34.55;;;18.77;;
6671;SDS011;3372;48.690;12.362;2024-03-08T07:39:36;36.28;;;16.25;;
6671;SDS011;3372;48.690;12.362;2024-03-08T07:42:02;32.30;;;16.15;;
6671;SDS011;3372;48.690;12.362;2024-03-08T07:44:28;31.88;;;17.30;;
6671;SDS011;3372;48.690;12.362;2024-03-08T07:46:55;34.13;;;18.45;;
6671;SDS011;3372;48.690;12.362;2024-03-08T07:49:21;32.38;;;17.05;;
6671;SDS011;3372;48.690;12.362;2024-03-08T07:51:47;31.33;;;17.30;;
6671;SDS011;3372;48.690;12.362;2024-03-08T07:54:14;34.28;;;18.95;;
6671;SDS011;3372;48.690;12.362;2024-03-08T07:56:40;31.77;;;17.10;;
6671;SDS011;3372;48.690;12.362;2024-03-08T07:59:07;31.65;;;17.77;;
6671;SDS011;3372;48.690;12.362;2024-03-08T08:01:33;30.13;;;17.70;;
6671;SDS011;3372;48.690;12.362;2024-03-08T08:03:59;28.90;;;16.65;;
6671;SDS011;3372;48.690;12.362;2024-03-08T08:06:28;31.85;;;17.58;;
6671;SDS011;3372;48.690;12.362;2024-03-08T08:08:58;29.80;;;16.95;;
6671;SDS011;3372;48.690;12.362;2024-03-08T08:11:27;34.40;;;17.42;;
6671;SDS011;3372;48.690;12.362;2024-03-08T08:13:53;29.35;;;16.42;;
6671;SDS011;3372;48.690;12.362;2024-03-08T08:16:20;28.73;;;16.35;;
6671;SDS011;3372;48.690;12.362;2024-03-08T08:18:46;31.98;;;16.30;;
6671;SDS011;3372;48.690;12.362;2024-03-08T08:21:13;29.33;;;15.82;;
6671;SDS011;3372;48.690;12.362;2024-03-08T08:23:38;29.40;;;15.95;;
6671;SDS011;3372;48.690;12.362;2024-03-08T08:26:04;29.77;;;16.20;;
6671;SDS011;3372;48.690;12.362;2024-03-08T08:28:32;26.65;;;15.90;;
6671;SDS011;3372;48.690;12.362;2024-03-08T08:30:58;27.77;;;17.75;;
6671;SDS011;3372;48.690;12.362;2024-03-08T08:33:24;23.50;;;15.27;;
6671;SDS011;3372;48.690;12.362;2024-03-08T08:35:50;24.63;;;14.65;;
6671;SDS011;3372;48.690;12.362;2024-03-08T08:38:19;24.73;;;15.05;;
6671;SDS011;3372;48.690;12.362;2024-03-08T08:40:45;27.27;;;15.75;;
6671;SDS011;3372;48.690;12.362;2024-03-08T08:43:12;27.92;;;15.23;;
6671;SDS011;3372;48.690;12.362;2024-03-08T08:45:39;26.27;;;15.07;;
6671;SDS011;3372;48.690;12.362;2024-03-08T08:48:05;25.95;;;14.52;;
6671;SDS011;3372;48.690;12.362;2024-03-08T08:50:31;26.45;;;15.88;;
6671;SDS011;3372;48.690;12.362;2024-03-08T08:52:57;24.38;;;14.57;;
6671;SDS011;3372;48.690;12.362;2024-03-08T08:55:23;22.25;;;14.48;;
6671;SDS011;3372;48.690;12.362;2024-03-08T08:57:52;26.17;;;15.32;;
6671;SDS011;3372;48.690;12.362;2024-03-08T09:00:19;22.63;;;14.68;;
6671;SDS011;3372;48.690;12.362;2024-03-08T09:02:45;27.90;;;14.43;;
6671;SDS011;3372;48.690;12.362;2024-03-08T09:05:12;25.35;;;15.70;;
6671;SDS011;3372;48.690;12.362;2024-03-08T09:07:41;24.48;;;14.40;;
6671;SDS011;3372;48.690;12.362;2024-03-08T09:10:09;23.38;;;14.43;;
6671;SDS011;3372;48.690;12.362;2024-03-08T09:12:37;22.70;;;13.50;;
6671;SDS011;3372;48.690;12.362;2024-03-08T09:17:30;23.35;;;13.73;;
6671;SDS011;3372;48.690;12.362;2024-03-08T09:19:56;25.00;;;14.13;;
6671;SDS011;3372;48.690;12.362;2024-03-08T09:22:22;22.17;;;13.80;;
6671;SDS011;3372;48.690;12.362;2024-03-08T09:24:49;21.52;;;13.30;;
6671;SDS011;3372;48.690;12.362;2024-03-08T09:27:15;21.98;;;12.80;;
6671;SDS011;3372;48.690;12.362;2024-03-08T09:29:43;24.15;;;14.02;;
6671;SDS011;3372;48.690;12.362;2024-03-08T09:32:09;19.55;;;13.02;;
6671;SDS011;3372;48.690;12.362;2024-03-08T09:34:36;19.88;;;12.52;;
6671;SDS011;3372;48.690;12.362;2024-03-08T09:37:02;20.20;;;13.18;;
6671;SDS011;3372;48.690;12.362;2024-03-08T09:39:29;21.95;;;13.80;;
6671;SDS011;3372;48.690;12.362;2024-03-08T09:41:55;20.75;;;12.77;;
6671;SDS011;3372;48.690;12.362;2024-03-08T09:44:21;19.92;;;12.35;;
6671;SDS011;3372;48.690;12.362;2024-03-08T09:46:48;21.48;;;13.52;;
6671;SDS011;3372;48.690;12.362;2024-03-08T09:49:16;19.27;;;12.38;;
6671;SDS011;3372;48.690;12.362;2024-03-08T09:51:42;22.83;;;12.63;;
6671;SDS011;3372;48.690;12.362;2024-03-08T09:54:08;19.30;;;12.25;;
6671;SDS011;3372;48.690;12.362;2024-03-08T09:56:35;17.17;;;10.45;;
6671;SDS011;3372;48.690;12.362;2024-03-08T09:59:01;20.20;;;11.35;;
6671;SDS011;3372;48.690;12.362;2024-03-08T10:01:31;17.60;;;11.93;;
6671;SDS011;3372;48.690;12.362;2024-03-08T10:03:57;19.20;;;12.23;;
6671;SDS011;3372;48.690;12.362;2024-03-08T10:06:23;16.45;;;11.45;;
6671;SDS011;3372;48.690;12.362;2024-03-08T10:08:49;17.77;;;11.30;;
6671;SDS011;3372;48.690;12.362;2024-03-08T10:11:19;17.05;;;11.30;;
6671;SDS011;3372;48.690;12.362;2024-03-08T10:13:45;18.15;;;11.15;;
6671;SDS011;3372;48.690;12.362;2024-03-08T10:16:14;16.63;;;10.95;;
6671;SDS011;3372;48.690;12.362;2024-03-08T10:18:41;17.08;;;10.70;;
6671;SDS011;3372;48.690;12.362;2024-03-08T10:21:08;17.13;;;11.52;;
6671;SDS011;3372;48.690;12.362;2024-03-08T10:23:38;20.23;;;10.52;;
6671;SDS011;3372;48.690;12.362;2024-03-08T10:26:14;16.58;;;9.43;;
6671;SDS011;3372;48.690;12.362;2024-03-08T10:28:41;18.33;;;9.93;;
6671;SDS011;3372;48.690;12.362;2024-03-08T10:31:07;15.77;;;9.90;;
6671;SDS011;3372;48.690;12.362;2024-03-08T10:33:34;16.92;;;9.75;;
6671;SDS011;3372;48.690;12.362;2024-03-08T10:36:00;17.25;;;9.98;;
6671;SDS011;3372;48.690;12.362;2024-03-08T10:38:28;15.95;;;10.57;;
6671;SDS011;3372;48.690;12.362;2024-03-08T10:40:58;13.95;;;8.63;;
6671;SDS011;3372;48.690;12.362;2024-03-08T10:43:25;16.23;;;9.85;;
6671;SDS011;3372;48.690;12.362;2024-03-08T10:45:59;18.55;;;10.20;;
6671;SDS011;3372;48.690;12.362;2024-03-08T10:48:29;15.07;;;9.23;;
6671;SDS011;3372;48.690;12.362;2024-03-08T10:51:02;15.40;;;9.70;;
6671;SDS011;3372;48.690;12.362;2024-03-08T10:53:28;15.55;;;9.02;;
6671;SDS011;3372;48.690;12.362;2024-03-08T10:55:58;12.95;;;9.05;;
6671;SDS011;3372;48.690;12.362;2024-03-08T10:58:24;13.25;;;9.13;;
6671;SDS011;3372;48.690;12.362;2024-03-08T11:00:57;14.88;;;9.77;;
6671;SDS011;3372;48.690;12.362;2024-03-08T11:06:22;15.60;;;9.90;;
6671;SDS011;3372;48.690;12.362;2024-03-08T11:08:49;14.73;;;9.48;;
6671;SDS011;3372;48.690;12.362;2024-03-08T11:13:56;16.35;;;10.15;;
6671;SDS011;3372;48.690;12.362;2024-03-08T11:21:22;16.50;;;9.77;;
6671;SDS011;3372;48.690;12.362;2024-03-08T11:24:01;14.38;;;9.63;;
6671;SDS011;3372;48.690;12.362;2024-03-08T11:26:28;15.02;;;9.57;;
6671;SDS011;3372;48.690;12.362;2024-03-08T11:31:45;14.05;;;9.85;;
6671;SDS011;3372;48.690;12.362;2024-03-08T11:34:15;17.40;;;9.90;;
6671;SDS011;3372;48.690;12.362;2024-03-08T11:36:41;16.30;;;10.43;;
6671;SDS011;3372;48.690;12.362;2024-03-08T11:39:07;15.15;;;10.05;;
6671;SDS011;3372;48.690;12.362;2024-03-08T11:41:39;14.90;;;10.13;;
6671;SDS011;3372;48.690;12.362;2024-03-08T11:44:07;17.00;;;10.07;;
6671;SDS011;3372;48.690;12.362;2024-03-08T11:46:34;14.73;;;10.32;;
6671;SDS011;3372;48.690;12.362;2024-03-08T11:49:00;16.42;;;9.65;;
6671;SDS011;3372;48.690;12.362;2024-03-08T11:51:28;15.90;;;10.02;;
6671;SDS011;3372;48.690;12.362;2024-03-08T11:53:55;14.93;;;9.27;;
6671;SDS011;3372;48.690;12.362;2024-03-08T11:56:21;14.30;;;9.98;;
6671;SDS011;3372;48.690;12.362;2024-03-08T11:58:54;16.48;;;10.10;;
6671;SDS011;3372;48.690;12.362;2024-03-08T12:01:24;16.00;;;10.20;;
6671;SDS011;3372;48.690;12.362;2024-03-08T12:03:54;13.07;;;8.02;;
6671;SDS011;3372;48.690;12.362;2024-03-08T12:08:49;14.73;;;8.50;;
6671;SDS011;3372;48.690;12.362;2024-03-08T12:11:19;13.10;;;8.48;;
6671;SDS011;3372;48.690;12.362;2024-03-08T12:13:48;11.15;;;7.18;;
6671;SDS011;3372;48.690;12.362;2024-03-08T12:16:16;11.70;;;7.70;;
6671;SDS011;3372;48.690;12.362;2024-03-08T12:18:43;10.82;;;7.70;;
6671;SDS011;3372;48.690;12.362;2024-03-08T12:23:36;9.38;;;6.60;;
6671;SDS011;3372;48.690;12.362;2024-03-08T12:26:12;10.45;;;7.03;;
6671;SDS011;3372;48.690;12.362;2024-03-08T12:28:39;12.23;;;7.20;;
6671;SDS011;3372;48.690;12.362;2024-03-08T12:31:06;11.75;;;7.28;;
6671;SDS011;3372;48.690;12.362;2024-03-08T12:33:37;11.88;;;7.43;;
6671;SDS011;3372;48.690;12.362;2024-03-08T12:36:03;10.15;;;6.72;;
6671;SDS011;3372;48.690;12.362;2024-03-08T12:38:32;11.20;;;7.57;;
6671;SDS011;3372;48.690;12.362;2024-03-08T12:41:00;9.07;;;7.25;;
6671;SDS011;3372;48.690;12.362;2024-03-08T12:43:27;10.80;;;7.20;;
6671;SDS011;3372;48.690;12.362;2024-03-08T12:45:55;10.32;;;6.65;;
6671;SDS011;3372;48.690;12.362;2024-03-08T12:48:21;10.68;;;7.43;;
6671;SDS011;3372;48.690;12.362;2024-03-08T12:50:47;11.48;;;7.40;;
6671;SDS011;3372;48.690;12.362;2024-03-08T12:53:13;10.10;;;6.65;;
6671;SDS011;3372;48.690;12.362;2024-03-08T12:55:39;9.43;;;6.13;;
6671;SDS011;3372;48.690;12.362;2024-03-08T12:58:06;8.93;;;6.25;;
6671;SDS011;3372;48.690;12.362;2024-03-08T13:00:34;10.73;;;6.13;;
6671;SDS011;3372;48.690;12.362;2024-03-08T13:03:07;9.82;;;5.35;;
6671;SDS011;3372;48.690;12.362;2024-03-08T13:05:35;9.88;;;5.57;;
6671;SDS011;3372;48.690;12.362;2024-03-08T13:08:04;8.75;;;5.28;;
6671;SDS011;3372;48.690;12.362;2024-03-08T13:10:30;7.95;;;5.35;;
6671;SDS011;3372;48.690;12.362;2024-03-08T13:12:56;7.70;;;4.53;;
6671;SDS011;3372;48.690;12.362;2024-03-08T13:15:22;7.80;;;4.68;;
6671;SDS011;3372;48.690;12.362;2024-03-08T13:17:48;8.80;;;5.75;;
6671;SDS011;3372;48.690;12.362;2024-03-08T13:20:15;8.88;;;5.15;;
6671;SDS011;3372;48.690;12.362;2024-03-08T13:22:47;8.68;;;5.60;;
6671;SDS011;3372;48.690;12.362;2024-03-08T13:25:13;8.63;;;5.13;;
6671;SDS011;3372;48.690;12.362;2024-03-08T13:27:40;8.02;;;5.88;;
6671;SDS011;3372;48.690;12.362;2024-03-08T13:30:10;9.20;;;6.05;;
6671;SDS011;3372;48.690;12.362;2024-03-08T13:32:43;8.32;;;5.25;;
6671;SDS011;3372;48.690;12.362;2024-03-08T13:35:09;8.45;;;5.38;;
6671;SDS011;3372;48.690;12.362;2024-03-08T13:37:42;9.23;;;4.97;;
6671;SDS011;3372;48.690;12.362;2024-03-08T13:40:10;8.30;;;5.53;;
6671;SDS011;3372;48.690;12.362;2024-03-08T13:42:38;10.75;;;5.68;;
6671;SDS011;3372;48.690;12.362;2024-03-08T13:45:08;9.80;;;5.53;;
6671;SDS011;3372;48.690;12.362;2024-03-08T13:47:37;9.73;;;5.40;;
6671;SDS011;3372;48.690;12.362;2024-03-08T13:50:05;11.10;;;5.43;;
6671;SDS011;3372;48.690;12.362;2024-03-08T13:52:32;7.90;;;5.00;;
6671;SDS011;3372;48.690;12.362;2024-03-08T13:57:25;6.75;;;4.50;;
6671;SDS011;3372;48.690;12.362;2024-03-08T14:02:18;6.93;;;4.30;;
6671;SDS011;3372;48.690;12.362;2024-03-08T14:04:44;7.30;;;4.57;;
6671;SDS011;3372;48.690;12.362;2024-03-08T14:07:10;6.85;;;4.53;;
6671;SDS011;3372;48.690;12.362;2024-03-08T14:09:36;7.57;;;4.60;;
6671;SDS011;3372;48.690;12.362;2024-03-08T14:12:07;7.10;;;4.40;;
6671;SDS011;3372;48.690;12.362;2024-03-08T14:14:33;8.60;;;5.00;;
6671;SDS011;3372;48.690;12.362;2024-03-08T14:17:02;7.68;;;4.80;;
6671;SDS011;3372;48.690;12.362;2024-03-08T14:19:29;8.35;;;4.90;;
6671;SDS011;3372;48.690;12.362;2024-03-08T14:21:59;7.93;;;5.50;;
6671;SDS011;3372;48.690;12.362;2024-03-08T14:24:25;9.00;;;5.75;;
6671;SDS011;3372;48.690;12.362;2024-03-08T14:26:51;7.90;;;5.07;;
6671;SDS011;3372;48.690;12.362;2024-03-08T14:29:17;8.25;;;5.13;;
6671;SDS011;3372;48.690;12.362;2024-03-08T14:31:44;7.20;;;4.53;;
6671;SDS011;3372;48.690;12.362;2024-03-08T14:34:10;8.07;;;5.13;;
6671;SDS011;3372;48.690;12.362;2024-03-08T14:36:36;7.63;;;4.22;;
6671;SDS011;3372;48.690;12.362;2024-03-08T14:39:03;8.00;;;4.93;;
6671;SDS011;3372;48.690;12.362;2024-03-08T14:41:29;6.68;;;4.35;;
6671;SDS011;3372;48.690;12.362;2024-03-08T14:43:55;8.38;;;4.82;;
6671;SDS011;3372;48.690;12.362;2024-03-08T14:46:22;7.25;;;5.07;;
6671;SDS011;3372;48.690;12.362;2024-03-08T14:48:51;6.65;;;4.45;;
6671;SDS011;3372;48.690;12.362;2024-03-08T14:51:18;7.13;;;4.25;;
6671;SDS011;3372;48.690;12.362;2024-03-08T14:53:46;7.00;;;4.45;;
6671;SDS011;3372;48.690;12.362;2024-03-08T14:56:12;6.45;;;4.13;;
6671;SDS011;3372;48.690;12.362;2024-03-08T14:58:41;8.02;;;4.70;;
6671;SDS011;3372;48.690;12.362;2024-03-08T15:01:08;11.18;;;4.57;;
6671;SDS011;3372;48.690;12.362;2024-03-08T15:03:36;6.78;;;3.78;;
6671;SDS011;3372;48.690;12.362;2024-03-08T15:06:03;7.40;;;4.55;;
6671;SDS011;3372;48.690;12.362;2024-03-08T15:08:33;9.23;;;4.75;;
6671;SDS011;3372;48.690;12.362;2024-03-08T15:10:59;7.65;;;4.00;;